createdAt,value
2022-09-24T00:01:33.090Z,6.93
2022-09-24T00:04:02.341Z,8.38
2022-09-24T00:06:33.644Z,5.38
2022-09-24T00:09:00.376Z,7.45
2022-09-24T00:11:28.618Z,9.95
2022-09-24T00:13:58.489Z,7.45
2022-09-24T00:16:27.740Z,7.53
2022-09-24T00:18:54.768Z,6.70
2022-09-24T00:21:24.153Z,9.35
2022-09-24T00:23:56.624Z,7.93
2022-09-24T00:26:42.535Z,7.60
2022-09-24T00:29:11.146Z,8.10
2022-09-24T00:31:38.217Z,9.90
2022-09-24T00:34:05.482Z,7.53
2022-09-24T00:36:32.430Z,7.43
2022-09-24T00:38:59.570Z,8.57
2022-09-24T00:41:32.660Z,6.68
2022-09-24T00:43:59.827Z,7.75
2022-09-24T00:46:44.032Z,7.60
2022-09-24T00:49:16.784Z,6.97
2022-09-24T00:51:46.942Z,6.90
2022-09-24T00:54:19.430Z,8.93
2022-09-24T00:56:50.189Z,15.10
2022-09-24T00:59:20.252Z,9.93
2022-09-24T01:01:49.380Z,20.25
2022-09-24T01:04:22.284Z,17.02
2022-09-24T01:06:49.905Z,14.45
2022-09-24T01:09:22.128Z,14.68
2022-09-24T01:12:15.420Z,12.50
2022-09-24T01:15:12.843Z,15.73
2022-09-24T01:18:00.791Z,7.53
2022-09-24T01:20:53.394Z,5.53
2022-09-24T01:23:46.272Z,10.57
2022-09-24T01:26:40.334Z,6.20
2022-09-24T01:29:37.491Z,8.45
2022-09-24T01:32:08.355Z,6.18
2022-09-24T01:34:46.920Z,6.47
2022-09-24T01:37:17.794Z,8.43
2022-09-24T01:39:47.153Z,7.55
2022-09-24T01:42:15.129Z,7.78
2022-09-24T01:44:44.418Z,8.43
2022-09-24T01:47:23.303Z,7.00
2022-09-24T01:49:53.759Z,7.85
2022-09-24T01:52:26.325Z,13.85
2022-09-24T01:54:56.513Z,13.02
2022-09-24T01:57:30.030Z,15.43
2022-09-24T02:00:09.953Z,19.67
2022-09-24T02:02:51.938Z,12.23
2022-09-24T02:05:43.222Z,16.17
2022-09-24T02:08:18.446Z,9.88
2022-09-24T02:13:20.456Z,8.27
2022-09-24T02:15:54.094Z,7.45
2022-09-24T02:18:25.678Z,7.32
2022-09-24T02:20:53.258Z,7.43
2022-09-24T02:23:20.610Z,7.22
2022-09-24T02:25:57.984Z,7.68
2022-09-24T02:28:25.567Z,7.63
2022-09-24T02:30:59.274Z,7.97
2022-09-24T02:33:46.702Z,7.97
2022-09-24T02:36:13.390Z,7.95
2022-09-24T02:38:39.955Z,8.35
2022-09-24T02:41:09.186Z,7.97
2022-09-24T02:43:36.312Z,11.80
2022-09-24T02:46:03.005Z,11.38
2022-09-24T02:48:29.640Z,14.98
2022-09-24T02:50:56.086Z,19.85
2022-09-24T02:53:22.733Z,9.80
2022-09-24T02:55:49.251Z,9.45
2022-09-24T02:58:15.792Z,13.57
2022-09-24T03:00:42.293Z,8.50
2022-09-24T03:03:08.735Z,11.65
2022-09-24T03:05:35.378Z,11.95
2022-09-24T03:08:01.892Z,8.75
2022-09-24T03:10:28.388Z,10.27
2022-09-24T03:12:55.192Z,11.75
2022-09-24T03:15:21.617Z,11.73
2022-09-24T03:17:48.289Z,12.45
2022-09-24T03:20:14.840Z,15.10
2022-09-24T03:22:41.516Z,11.30
2022-09-24T03:25:08.581Z,14.68
2022-09-24T03:27:35.167Z,14.68
2022-09-24T03:30:20.513Z,10.93
2022-09-24T03:32:48.076Z,10.55
2022-09-24T03:35:15.685Z,11.50
2022-09-24T03:37:47.029Z,9.38
2022-09-24T03:40:15.733Z,12.05
2022-09-24T03:42:42.207Z,9.65
2022-09-24T03:45:09.273Z,13.80
2022-09-24T03:47:35.861Z,10.60
2022-09-24T03:50:02.579Z,10.35
2022-09-24T03:52:29.729Z,9.73
2022-09-24T03:54:56.298Z,8.45
2022-09-24T03:57:22.712Z,9.50
2022-09-24T03:59:49.135Z,8.18
2022-09-24T04:02:15.604Z,10.70
2022-09-24T04:04:42.127Z,7.43
2022-09-24T04:07:08.552Z,8.10
2022-09-24T04:09:35.055Z,9.00
2022-09-24T04:12:02.185Z,7.50
2022-09-24T04:14:29.397Z,7.88
2022-09-24T04:16:55.922Z,8.25
2022-09-24T04:19:22.342Z,8.48
2022-09-24T04:21:48.784Z,8.43
2022-09-24T04:24:15.341Z,7.68
2022-09-24T04:26:42.016Z,12.15
2022-09-24T04:29:08.835Z,7.45
2022-09-24T04:31:35.440Z,8.10
2022-09-24T04:34:02.069Z,10.45
2022-09-24T04:36:28.745Z,10.82
2022-09-24T04:38:55.173Z,7.45
2022-09-24T04:41:21.884Z,6.78
2022-09-24T04:43:48.351Z,9.70
2022-09-24T04:46:15.106Z,8.90
2022-09-24T04:48:41.615Z,9.13
2022-09-24T04:51:08.796Z,7.68
2022-09-24T04:53:37.120Z,8.32
2022-09-24T04:56:05.521Z,12.20
2022-09-24T04:58:32.121Z,6.00
2022-09-24T05:01:03.751Z,6.72
2022-09-24T05:03:30.425Z,6.47
2022-09-24T05:05:56.981Z,10.68
2022-09-24T05:08:23.345Z,7.68
2022-09-24T05:10:50.503Z,9.10
2022-09-24T05:13:17.172Z,9.23
2022-09-24T05:15:43.900Z,7.25
2022-09-24T05:18:10.565Z,9.40
2022-09-24T05:20:37.627Z,7.75
2022-09-24T05:23:04.743Z,7.45
2022-09-24T05:25:31.319Z,7.40
2022-09-24T05:27:58.076Z,7.47
2022-09-24T05:30:25.820Z,6.35
2022-09-24T05:32:52.866Z,7.60
2022-09-24T05:35:23.998Z,7.50
2022-09-24T05:37:53.310Z,6.22
2022-09-24T05:40:38.904Z,7.07
2022-09-24T05:43:05.523Z,9.30
2022-09-24T05:45:32.718Z,7.00
2022-09-24T05:48:00.166Z,7.65
2022-09-24T05:50:27.140Z,11.32
2022-09-24T05:52:53.664Z,9.73
2022-09-24T05:55:20.126Z,11.80
2022-09-24T05:57:46.606Z,9.48
2022-09-24T06:00:13.285Z,7.45
2022-09-24T06:02:39.967Z,8.40
2022-09-24T06:05:06.953Z,8.50
2022-09-24T06:07:33.699Z,8.27
2022-09-24T06:10:00.784Z,12.20
2022-09-24T06:12:27.545Z,13.77
2022-09-24T06:14:54.117Z,10.13
2022-09-24T06:17:21.664Z,11.98
2022-09-24T06:19:48.251Z,13.45
2022-09-24T06:22:14.853Z,9.40
2022-09-24T06:24:41.412Z,9.05
2022-09-24T06:27:07.840Z,7.78
2022-09-24T06:29:35.027Z,9.65
2022-09-24T06:32:01.904Z,8.32
2022-09-24T06:34:28.819Z,12.07
2022-09-24T06:36:56.927Z,16.10
2022-09-24T06:39:24.361Z,11.43
2022-09-24T06:41:51.500Z,12.32
2022-09-24T06:44:19.221Z,14.07
2022-09-24T06:46:46.055Z,13.23
2022-09-24T06:49:12.682Z,12.82
2022-09-24T06:51:39.246Z,11.73
2022-09-24T06:54:06.139Z,13.30
2022-09-24T06:56:32.721Z,8.80
2022-09-24T06:58:59.148Z,12.50
2022-09-24T07:01:25.644Z,10.38
2022-09-24T07:03:52.153Z,8.93
2022-09-24T07:06:18.659Z,10.38
2022-09-24T07:08:45.339Z,10.48
2022-09-24T07:11:13.659Z,10.00
2022-09-24T07:13:40.140Z,11.50
2022-09-24T07:16:06.838Z,14.63
2022-09-24T07:18:33.389Z,10.20
2022-09-24T07:21:00.952Z,8.93
2022-09-24T07:23:27.757Z,12.82
2022-09-24T07:25:57.693Z,12.43
2022-09-24T07:28:24.582Z,10.80
2022-09-24T07:30:58.991Z,14.00
2022-09-24T07:33:26.212Z,10.32
2022-09-24T07:35:52.799Z,10.77
2022-09-24T07:38:19.860Z,11.95
2022-09-24T07:40:46.544Z,11.98
2022-09-24T07:43:15.124Z,11.70
2022-09-24T07:45:42.881Z,11.80
2022-09-24T07:48:10.798Z,10.23
2022-09-24T07:50:42.661Z,9.88
2022-09-24T07:53:12.663Z,9.63
2022-09-24T07:55:41.089Z,9.13
2022-09-24T07:58:19.428Z,11.00
2022-09-24T08:00:46.653Z,11.25
2022-09-24T08:03:13.666Z,14.80
2022-09-24T08:05:47.741Z,12.02
2022-09-24T08:08:15.172Z,19.13
2022-09-24T08:10:42.479Z,10.73
2022-09-24T08:13:09.147Z,10.70
2022-09-24T08:15:35.790Z,11.68
2022-09-24T08:18:06.002Z,11.10
2022-09-24T08:20:33.542Z,11.38
2022-09-24T08:23:05.222Z,10.75
2022-09-24T08:25:32.105Z,13.45
2022-09-24T08:28:03.328Z,13.77
2022-09-24T08:30:30.901Z,11.80
2022-09-24T08:32:58.174Z,11.52
2022-09-24T08:35:25.298Z,12.63
2022-09-24T08:37:54.870Z,12.25
2022-09-24T08:40:28.485Z,13.25
2022-09-24T08:43:24.289Z,10.30
2022-09-24T08:46:15.147Z,11.55
2022-09-24T08:48:46.466Z,11.50
2022-09-24T08:51:19.039Z,15.13
2022-09-24T08:54:07.727Z,11.95
2022-09-24T08:56:37.533Z,9.00
2022-09-24T08:59:23.395Z,15.07
2022-09-24T09:02:18.231Z,11.25
2022-09-24T09:05:24.063Z,8.57
2022-09-24T09:08:42.235Z,12.88
2022-09-24T09:11:07.969Z,9.00
2022-09-24T09:13:41.141Z,9.10
2022-09-24T09:16:21.471Z,10.82
2022-09-24T09:18:51.579Z,12.57
2022-09-24T09:21:22.918Z,11.45
2022-09-24T09:23:50.849Z,10.43
2022-09-24T09:26:20.071Z,10.10
2022-09-24T09:28:47.927Z,14.48
2022-09-24T09:31:58.819Z,11.32
2022-09-24T09:34:43.543Z,12.77
2022-09-24T09:37:26.351Z,12.90
2022-09-24T09:40:12.773Z,9.98
2022-09-24T09:42:42.991Z,17.15
2022-09-24T09:45:18.611Z,15.77
2022-09-24T09:47:55.620Z,11.10
2022-09-24T09:50:48.794Z,9.65
2022-09-24T09:53:26.916Z,9.05
2022-09-24T09:56:06.444Z,13.45
2022-09-24T09:58:35.998Z,10.60
2022-09-24T10:01:15.435Z,12.52
2022-09-24T10:03:44.927Z,12.30
2022-09-24T10:06:14.403Z,15.55
2022-09-24T10:08:40.882Z,10.55
2022-09-24T10:11:15.295Z,13.23
2022-09-24T10:13:41.725Z,10.27
2022-09-24T10:16:12.169Z,9.65
2022-09-24T10:18:44.008Z,10.43
2022-09-24T10:21:14.321Z,10.07
2022-09-24T10:23:43.457Z,9.95
2022-09-24T10:26:10.696Z,9.85
2022-09-24T10:29:03.775Z,9.55
2022-09-24T10:31:32.304Z,8.40
2022-09-24T10:34:01.797Z,6.45
2022-09-24T10:36:32.392Z,7.88
2022-09-24T10:39:07.767Z,8.25
2022-09-24T10:41:35.781Z,9.88
2022-09-24T10:44:11.720Z,11.32
2022-09-24T10:47:12.719Z,13.30
2022-09-24T10:49:57.450Z,6.78
2022-09-24T10:52:47.433Z,8.77
2022-09-24T10:55:29.129Z,6.88
2022-09-24T10:58:14.432Z,8.07
2022-09-24T11:00:59.917Z,9.52
2022-09-24T11:06:10.878Z,10.55
2022-09-24T11:08:55.614Z,8.98
2022-09-24T11:11:32.886Z,10.37
2022-09-24T11:14:31.104Z,8.88
2022-09-24T11:17:00.488Z,12.73
2022-09-24T11:19:48.961Z,6.28
2022-09-24T11:22:44.057Z,11.10
2022-09-24T11:25:16.772Z,13.83
2022-09-24T11:28:17.111Z,8.77
2022-09-24T11:31:02.392Z,8.38
2022-09-24T11:33:41.012Z,11.25
2022-09-24T11:36:07.380Z,12.90
2022-09-24T11:39:01.352Z,9.73
2022-09-24T11:41:47.605Z,8.00
2022-09-24T11:44:31.428Z,9.02
2022-09-24T11:47:26.366Z,8.50
2022-09-24T11:50:06.368Z,9.27
2022-09-24T11:52:41.712Z,11.95
2022-09-24T11:58:00.735Z,9.38
2022-09-24T12:00:36.873Z,8.88
2022-09-24T12:03:14.215Z,8.95
2022-09-24T12:05:52.255Z,74.22
2022-09-24T12:08:21.969Z,41.22
2022-09-24T12:11:15.700Z,12.82
2022-09-24T12:13:45.049Z,13.05
2022-09-24T12:16:15.342Z,13.88
2022-09-24T12:18:57.562Z,29.00
2022-09-24T12:21:34.418Z,14.93
2022-09-24T12:24:07.254Z,9.52
2022-09-24T12:26:37.516Z,9.27
2022-09-24T12:29:36.701Z,11.20
2022-09-24T12:32:33.807Z,8.70
2022-09-24T12:35:19.249Z,9.65
2022-09-24T12:37:51.053Z,53.63
2022-09-24T12:40:32.980Z,99.32
2022-09-24T12:43:02.617Z,39.50
2022-09-24T12:45:29.869Z,13.65
2022-09-24T12:48:01.184Z,32.75
2022-09-24T12:50:31.276Z,13.70
2022-09-24T12:52:57.983Z,33.65
2022-09-24T12:55:30.771Z,17.10
2022-09-24T12:58:05.745Z,27.95
2022-09-24T13:00:32.146Z,17.45
2022-09-24T13:02:59.864Z,13.98
2022-09-24T13:05:32.672Z,46.65
2022-09-24T13:08:24.617Z,36.80
2022-09-24T13:11:05.833Z,30.42
2022-09-24T13:13:40.889Z,18.80
2022-09-24T13:16:19.713Z,11.48
2022-09-24T13:18:55.045Z,44.65
2022-09-24T13:21:25.204Z,46.72
2022-09-24T13:23:52.071Z,26.23
2022-09-24T13:26:24.517Z,13.02
2022-09-24T13:29:00.616Z,18.33
2022-09-24T13:31:41.857Z,18.75
2022-09-24T13:34:11.112Z,16.17
2022-09-24T13:36:44.474Z,11.88
2022-09-24T13:39:48.496Z,18.98
2022-09-24T13:42:25.715Z,15.02
2022-09-24T13:45:00.418Z,14.75
2022-09-24T13:47:45.350Z,12.90
2022-09-24T13:50:44.007Z,15.98
2022-09-24T13:53:32.465Z,12.95
2022-09-24T13:56:02.306Z,10.73
2022-09-24T13:58:30.024Z,11.88
2022-09-24T14:00:59.727Z,21.77
2022-09-24T14:03:30.855Z,12.77
2022-09-24T14:05:57.675Z,13.52
2022-09-24T14:08:27.479Z,20.20
2022-09-24T14:11:13.231Z,19.08
2022-09-24T14:13:45.602Z,15.20
2022-09-24T14:16:18.756Z,17.38
2022-09-24T14:18:45.832Z,11.93
2022-09-24T14:21:50.708Z,17.42
2022-09-24T14:24:34.630Z,13.10
2022-09-24T14:27:03.506Z,13.32
2022-09-24T14:29:52.420Z,18.80
2022-09-24T14:32:32.624Z,27.95
2022-09-24T14:35:27.766Z,60.63
2022-09-24T14:38:04.434Z,139.45
2022-09-24T14:40:46.140Z,40.83
2022-09-24T14:43:22.351Z,31.42
2022-09-24T14:45:50.619Z,20.83
2022-09-24T14:48:31.649Z,14.23
2022-09-24T14:50:58.240Z,14.52
2022-09-24T14:53:27.039Z,16.45
2022-09-24T14:55:54.053Z,20.02
2022-09-24T14:58:36.377Z,24.85
2022-09-24T15:01:24.905Z,23.83
2022-09-24T15:03:56.357Z,19.05
2022-09-24T15:06:25.895Z,22.58
2022-09-24T15:09:05.132Z,18.42
2022-09-24T15:11:34.444Z,21.48
2022-09-24T15:14:27.218Z,17.23
2022-09-24T15:16:55.010Z,17.73
2022-09-24T15:19:22.619Z,20.45
2022-09-24T15:21:52.255Z,24.85
2022-09-24T15:24:20.126Z,24.75
2022-09-24T15:26:58.036Z,26.52
2022-09-24T15:29:24.789Z,27.55
2022-09-24T15:31:52.506Z,30.92
2022-09-24T15:34:20.510Z,26.95
2022-09-24T15:36:55.608Z,28.70
2022-09-24T15:39:23.240Z,30.60
2022-09-24T15:41:49.710Z,25.77
2022-09-24T15:44:22.480Z,22.58
2022-09-24T15:46:51.067Z,25.88
2022-09-24T15:49:22.320Z,24.95
2022-09-24T15:51:59.734Z,25.33
2022-09-24T15:54:26.084Z,25.58
2022-09-24T15:56:52.703Z,24.80
2022-09-24T15:59:21.092Z,24.52
2022-09-24T16:01:50.981Z,26.67
2022-09-24T16:04:17.414Z,20.60
2022-09-24T16:06:43.821Z,23.08
2022-09-24T16:09:10.305Z,23.88
2022-09-24T16:11:36.734Z,20.38
2022-09-24T16:14:03.116Z,22.52
2022-09-24T16:16:29.651Z,27.75
2022-09-24T16:18:56.038Z,27.60
2022-09-24T16:21:22.387Z,27.58
2022-09-24T16:23:54.784Z,25.30
2022-09-24T16:26:21.232Z,25.80
2022-09-24T16:28:50.048Z,25.80
2022-09-24T16:31:16.473Z,24.35
2022-09-24T16:33:42.922Z,29.23
2022-09-24T16:36:09.618Z,29.20
2022-09-24T16:38:37.581Z,40.60
2022-09-24T16:41:05.538Z,30.83
2022-09-24T16:43:32.774Z,29.15
2022-09-24T16:46:03.888Z,28.42
2022-09-24T16:48:31.338Z,21.15
2022-09-24T16:51:08.668Z,24.63
2022-09-24T16:53:35.753Z,23.27
2022-09-24T16:56:13.096Z,20.42
2022-09-24T16:58:41.155Z,20.95
2022-09-24T17:01:09.706Z,19.95
2022-09-24T17:03:36.529Z,23.17
2022-09-24T17:06:03.400Z,22.92
2022-09-24T17:08:53.276Z,23.05
2022-09-24T17:11:20.175Z,20.95
2022-09-24T17:13:49.374Z,24.15
2022-09-24T17:16:16.581Z,23.98
2022-09-24T17:18:42.999Z,21.30
2022-09-24T17:21:11.527Z,23.30
2022-09-24T17:23:38.955Z,20.25
2022-09-24T17:26:11.714Z,27.15
2022-09-24T17:28:40.639Z,24.85
2022-09-24T17:31:08.744Z,26.02
2022-09-24T17:33:43.419Z,22.85
2022-09-24T17:38:37.813Z,25.65
2022-09-24T17:41:06.639Z,22.40
2022-09-24T17:43:34.117Z,27.52
2022-09-24T17:46:14.912Z,19.25
2022-09-24T17:48:44.504Z,21.35
2022-09-24T17:51:19.822Z,21.63
2022-09-24T17:56:14.440Z,22.45
2022-09-24T17:58:44.274Z,19.83
2022-09-24T18:01:22.578Z,21.65
2022-09-24T18:03:56.597Z,20.02
2022-09-24T18:06:25.649Z,18.85
2022-09-24T18:08:54.537Z,21.42
2022-09-24T18:11:27.085Z,21.83
2022-09-24T18:13:55.736Z,20.50
2022-09-24T18:16:24.588Z,19.70
2022-09-24T18:18:51.434Z,20.67
2022-09-24T18:21:20.745Z,25.65
2022-09-24T18:23:48.004Z,22.15
2022-09-24T18:26:21.454Z,26.88
2022-09-24T18:28:47.826Z,27.50
2022-09-24T18:31:14.574Z,25.50
2022-09-24T18:33:42.742Z,23.95
2022-09-24T18:36:11.911Z,23.25
2022-09-24T18:38:38.630Z,24.95
2022-09-24T18:41:12.854Z,23.35
2022-09-24T18:43:39.875Z,20.50
2022-09-24T18:46:08.937Z,23.75
2022-09-24T18:48:35.584Z,24.48
2022-09-24T18:51:01.975Z,28.80
2022-09-24T18:53:31.334Z,29.02
2022-09-24T18:56:02.980Z,25.05
2022-09-24T18:58:29.347Z,28.58
2022-09-24T19:01:05.435Z,27.45
2022-09-24T19:03:32.278Z,26.45
2022-09-24T19:06:04.221Z,30.20
2022-09-24T19:08:31.978Z,27.58
2022-09-24T19:11:17.394Z,30.88
2022-09-24T19:13:49.404Z,26.45
2022-09-24T19:16:17.836Z,26.08
2022-09-24T19:18:44.388Z,27.23
2022-09-24T19:21:14.023Z,26.30
2022-09-24T19:23:45.906Z,23.38
2022-09-24T19:26:15.911Z,29.60
2022-09-24T19:28:43.329Z,27.58
2022-09-24T19:31:14.973Z,44.08
2022-09-24T19:33:41.687Z,48.22
2022-09-24T19:36:09.450Z,41.47
2022-09-24T19:38:37.080Z,30.63
2022-09-24T19:41:27.124Z,26.13
2022-09-24T19:43:58.567Z,29.15
2022-09-24T19:46:27.186Z,25.63
2022-09-24T19:48:55.381Z,31.42
2022-09-24T19:51:30.183Z,24.25
2022-09-24T19:53:59.097Z,27.60
2022-09-24T19:56:26.372Z,25.02
2022-09-24T19:58:55.800Z,24.85
2022-09-24T20:01:24.872Z,27.10
2022-09-24T20:03:51.629Z,23.77
2022-09-24T20:06:22.512Z,22.88
2022-09-24T20:08:49.885Z,26.33
2022-09-24T20:11:22.211Z,21.88
2022-09-24T20:13:49.932Z,23.73
2022-09-24T20:16:19.407Z,23.15
2022-09-24T20:18:50.634Z,23.00
2022-09-24T20:21:18.777Z,19.58
2022-09-24T20:23:46.745Z,23.67
2022-09-24T20:26:33.121Z,23.77
2022-09-24T20:28:59.790Z,18.83
2022-09-24T20:31:26.415Z,21.55
2022-09-24T20:33:53.801Z,24.20
2022-09-24T20:36:24.031Z,29.00
2022-09-24T20:38:51.315Z,26.08
2022-09-24T20:41:20.103Z,21.33
2022-09-24T20:43:46.775Z,23.17
2022-09-24T20:46:19.203Z,23.58
2022-09-24T20:48:45.722Z,23.05
2022-09-24T20:51:14.712Z,21.63
2022-09-24T20:53:41.850Z,24.23
2022-09-24T20:56:09.273Z,21.73
2022-09-24T20:58:37.141Z,24.45
2022-09-24T21:01:04.284Z,25.02
2022-09-24T21:03:43.980Z,24.92
2022-09-24T21:06:12.135Z,19.23
2022-09-24T21:08:40.977Z,21.25
2022-09-24T21:11:19.040Z,23.65
2022-09-24T21:13:50.045Z,22.08
2022-09-24T21:16:28.853Z,23.35
2022-09-24T21:18:55.924Z,26.45
2022-09-24T21:21:23.471Z,22.63
2022-09-24T21:23:52.813Z,23.40
2022-09-24T21:26:28.316Z,21.08
2022-09-24T21:28:58.701Z,21.95
2022-09-24T21:31:31.505Z,23.85
2022-09-24T21:33:58.459Z,25.20
2022-09-24T21:36:28.662Z,22.35
2022-09-24T21:39:04.914Z,22.60
2022-09-24T21:41:36.055Z,21.15
2022-09-24T21:44:03.187Z,24.13
2022-09-24T21:46:33.072Z,24.75
2022-09-24T21:49:00.476Z,23.10
2022-09-24T21:51:29.958Z,22.55
2022-09-24T21:54:01.787Z,24.92
2022-09-24T21:56:29.901Z,26.95
2022-09-24T21:58:57.192Z,22.67
2022-09-24T22:01:27.750Z,26.73
2022-09-24T22:03:56.122Z,27.88
2022-09-24T22:06:26.408Z,25.35
2022-09-24T22:08:54.695Z,23.73
2022-09-24T22:11:21.169Z,26.45
2022-09-24T22:13:47.774Z,27.23
2022-09-24T22:16:14.167Z,24.33
2022-09-24T22:18:40.665Z,25.33
2022-09-24T22:21:10.424Z,25.30
2022-09-24T22:23:37.530Z,25.27
2022-09-24T22:26:05.640Z,25.58
2022-09-24T22:28:32.430Z,29.67
2022-09-24T22:31:02.943Z,28.25
2022-09-24T22:33:48.885Z,25.98
2022-09-24T22:36:15.783Z,27.00
2022-09-24T22:38:42.315Z,23.85
2022-09-24T22:41:10.997Z,28.85
2022-09-24T22:43:39.037Z,29.58
2022-09-24T22:46:08.551Z,30.80
2022-09-24T22:48:35.129Z,31.05
2022-09-24T22:51:02.191Z,30.55
2022-09-24T22:53:29.046Z,30.83
2022-09-24T22:56:12.089Z,26.85
2022-09-24T22:58:41.363Z,35.08
2022-09-24T23:01:09.874Z,32.13
2022-09-24T23:03:36.939Z,30.85
2022-09-24T23:06:05.916Z,29.85
2022-09-24T23:08:34.140Z,25.90
2022-09-24T23:11:15.971Z,23.98
2022-09-24T23:13:44.545Z,25.40
2022-09-24T23:16:16.788Z,25.58
2022-09-24T23:18:45.735Z,25.20
2022-09-24T23:21:15.792Z,27.23
2022-09-24T23:23:42.844Z,21.63
2022-09-24T23:26:16.448Z,25.92
2022-09-24T23:28:46.077Z,25.85
2022-09-24T23:31:14.360Z,23.35
2022-09-24T23:33:42.117Z,23.70
2022-09-24T23:36:10.990Z,25.73
2022-09-24T23:38:38.971Z,24.83
2022-09-24T23:41:06.658Z,27.75
2022-09-24T23:43:33.825Z,29.77
2022-09-24T23:46:00.275Z,27.20
2022-09-24T23:48:27.736Z,25.35
2022-09-24T23:50:54.775Z,27.23
2022-09-24T23:53:24.594Z,28.52
2022-09-24T23:55:51.845Z,25.48
2022-09-24T23:58:20.847Z,34.28
